createdAt,value
2023-05-10T00:00:30.196Z,100938.03
2023-05-10T00:01:33.985Z,100936.63
2023-05-10T00:02:39.410Z,100927.16
2023-05-10T00:03:43.232Z,100936.84
2023-05-10T00:04:46.994Z,100924.56
2023-05-10T00:05:50.692Z,100938.03
2023-05-10T00:06:54.369Z,100926.91
2023-05-10T00:07:58.151Z,100937.53
2023-05-10T00:09:01.802Z,100941.53
2023-05-10T00:10:06.067Z,100924.28
2023-05-10T00:11:09.731Z,100935.09
2023-05-10T00:12:13.364Z,100943.09
2023-05-10T00:13:17.133Z,100949.53
2023-05-10T00:14:20.886Z,100927.78
2023-05-10T00:15:24.693Z,100919.84
2023-05-10T00:16:28.416Z,100934.28
2023-05-10T00:17:32.160Z,100933.47
2023-05-10T00:18:37.486Z,100936.84
2023-05-10T00:19:41.225Z,100934.28
2023-05-10T00:20:44.945Z,100933.63
2023-05-10T00:21:48.656Z,100936.16
2023-05-10T00:22:52.403Z,100931.47
2023-05-10T00:23:56.215Z,100928.72
2023-05-10T00:24:59.904Z,100924.63
2023-05-10T00:26:03.820Z,100925.00
2023-05-10T00:27:07.460Z,100913.22
2023-05-10T00:28:11.139Z,100926.13
2023-05-10T00:29:14.789Z,100925.63
2023-05-10T00:30:19.069Z,100918.59
2023-05-10T00:31:22.823Z,100931.53
2023-05-10T00:32:26.658Z,100929.84
2023-05-10T00:33:30.532Z,100928.38
2023-05-10T00:34:36.040Z,100930.00
2023-05-10T00:35:39.673Z,100929.81
2023-05-10T00:36:43.359Z,100930.75
2023-05-10T00:37:47.305Z,100933.69
2023-05-10T00:38:50.973Z,100942.78
2023-05-10T00:39:54.661Z,100945.41
2023-05-10T00:40:58.404Z,100945.41
2023-05-10T00:42:02.134Z,100945.25
2023-05-10T00:43:05.994Z,100935.69
2023-05-10T00:44:09.772Z,100951.38
2023-05-10T00:45:13.537Z,100951.38
2023-05-10T00:46:18.033Z,100951.50
2023-05-10T00:47:21.858Z,100955.06
2023-05-10T00:48:25.782Z,100945.97
2023-05-10T00:49:30.470Z,100955.13
2023-05-10T00:50:36.416Z,100959.66
2023-05-10T00:51:40.262Z,100961.75
2023-05-10T00:52:44.592Z,100972.63
2023-05-10T00:53:48.542Z,100963.38
2023-05-10T00:54:53.642Z,100977.63
2023-05-10T00:55:57.543Z,100976.00
2023-05-10T00:57:01.256Z,100983.28
2023-05-10T00:58:05.259Z,100977.78
2023-05-10T00:59:09.898Z,100994.72
2023-05-10T01:00:15.468Z,101001.03
2023-05-10T01:01:19.677Z,100996.13
2023-05-10T01:02:23.480Z,101005.66
2023-05-10T01:03:27.557Z,101016.34
2023-05-10T01:04:31.792Z,101008.56
2023-05-10T01:05:37.218Z,101013.66
2023-05-10T01:06:41.101Z,101005.53
2023-05-10T01:07:44.777Z,101012.78
2023-05-10T01:08:49.172Z,101001.97
2023-05-10T01:09:52.969Z,101011.97
2023-05-10T01:10:57.053Z,101014.88
2023-05-10T01:12:02.074Z,100999.88
2023-05-10T01:13:06.050Z,101018.59
2023-05-10T01:14:10.402Z,101028.78
2023-05-10T01:15:16.158Z,101020.53
2023-05-10T01:16:19.938Z,101036.25
2023-05-10T01:17:24.812Z,101026.56
2023-05-10T01:18:30.191Z,101045.09
2023-05-10T01:19:35.961Z,101039.28
2023-05-10T01:20:49.727Z,101049.47
2023-05-10T01:22:02.356Z,101048.34
2023-05-10T01:23:37.636Z,101033.34
2023-05-10T01:25:04.722Z,101057.28
2023-05-10T01:26:49.850Z,101055.72
2023-05-10T01:28:40.875Z,101059.28
2023-05-10T01:30:15.968Z,101068.19
2023-05-10T01:31:42.493Z,101067.22
2023-05-10T01:32:56.163Z,101084.25
2023-05-10T01:34:04.102Z,101085.38
2023-05-10T01:35:12.522Z,101076.97
2023-05-10T01:36:25.701Z,101057.66
2023-05-10T01:37:39.647Z,101087.84
2023-05-10T01:38:49.000Z,101096.31
2023-05-10T01:40:00.180Z,101100.53
2023-05-10T01:41:14.157Z,101094.69
2023-05-10T01:42:23.057Z,101087.63
2023-05-10T01:43:32.582Z,101096.69
2023-05-10T01:44:41.059Z,101096.69
2023-05-10T01:45:53.074Z,101104.63
2023-05-10T01:47:06.307Z,101098.78
2023-05-10T01:48:13.008Z,101097.97
2023-05-10T01:49:28.312Z,101107.84
2023-05-10T01:50:33.618Z,101107.84
2023-05-10T01:51:43.820Z,101115.31
2023-05-10T01:52:53.408Z,101116.28
2023-05-10T01:54:03.326Z,101114.50
2023-05-10T01:55:10.932Z,101125.06
2023-05-10T01:56:16.220Z,101119.41
2023-05-10T01:57:22.158Z,101124.09
2023-05-10T01:58:30.205Z,101121.69
2023-05-10T01:59:37.344Z,101115.41
2023-05-10T02:00:44.998Z,101127.53
2023-05-10T02:01:50.625Z,101122.34
2023-05-10T02:02:54.664Z,101130.13
2023-05-10T02:04:01.596Z,101122.63
2023-05-10T02:05:07.978Z,101123.28
2023-05-10T02:06:14.911Z,101125.38
2023-05-10T02:07:19.478Z,101133.34
2023-05-10T02:08:23.905Z,101134.97
2023-05-10T02:09:29.617Z,101142.59
2023-05-10T02:10:34.041Z,101131.06
2023-05-10T02:11:40.386Z,101126.06
2023-05-10T02:12:45.574Z,101124.13
2023-05-10T02:13:51.106Z,101125.41
2023-05-10T02:14:55.581Z,101120.41
2023-05-10T02:16:00.417Z,101115.69
2023-05-10T02:17:06.016Z,101111.34
2023-05-10T02:18:11.016Z,101121.34
2023-05-10T02:19:17.386Z,101116.97
2023-05-10T02:20:22.244Z,101114.38
2023-05-10T02:21:27.842Z,101110.00
2023-05-10T02:22:32.054Z,101098.19
2023-05-10T02:23:36.579Z,101095.91
2023-05-10T02:24:41.476Z,101088.00
2023-05-10T02:25:46.732Z,101092.69
2023-05-10T02:26:53.435Z,101078.44
2023-05-10T02:27:59.770Z,101077.31
2023-05-10T02:29:04.739Z,101063.75
2023-05-10T02:30:09.950Z,101057.44
2023-05-10T02:31:14.907Z,101066.16
2023-05-10T02:32:19.173Z,101054.34
2023-05-10T02:33:24.047Z,101037.75
2023-05-10T02:34:31.766Z,101059.22
2023-05-10T02:35:36.854Z,101063.91
2023-05-10T02:36:41.905Z,101066.34
2023-05-10T02:37:47.126Z,101063.09
2023-05-10T02:38:53.498Z,101054.34
2023-05-10T02:39:58.471Z,101055.81
2023-05-10T02:41:03.365Z,101055.81
2023-05-10T02:42:08.142Z,101052.41
2023-05-10T02:43:16.012Z,101052.06
2023-05-10T02:44:21.373Z,101054.81
2023-05-10T02:45:30.843Z,101054.97
2023-05-10T02:46:34.607Z,101054.63
2023-05-10T02:47:38.395Z,101046.91
2023-05-10T02:48:42.190Z,101049.47
2023-05-10T02:49:48.046Z,101048.97
2023-05-10T02:50:54.584Z,101036.59
2023-05-10T02:52:03.196Z,101056.75
2023-05-10T02:53:13.385Z,101048.50
2023-05-10T02:54:22.141Z,101050.78
2023-05-10T02:55:37.203Z,101049.66
2023-05-10T02:56:48.824Z,101049.66
2023-05-10T02:57:57.665Z,101031.03
2023-05-10T02:59:01.390Z,101055.16
2023-05-10T03:00:05.669Z,101060.78
2023-05-10T03:01:09.443Z,101060.13
2023-05-10T03:02:14.674Z,101061.28
2023-05-10T03:03:18.388Z,101057.88
2023-05-10T03:04:22.162Z,101040.72
2023-05-10T03:05:27.560Z,101053.97
2023-05-10T03:06:31.226Z,101059.47
2023-05-10T03:07:35.796Z,101060.09
2023-05-10T03:08:39.920Z,101035.69
2023-05-10T03:09:44.106Z,101057.66
2023-05-10T03:10:57.434Z,101064.63
2023-05-10T03:12:06.410Z,101058.44
2023-05-10T03:13:18.398Z,101059.25
2023-05-10T03:14:36.815Z,101052.94
2023-05-10T03:16:01.406Z,101030.66
2023-05-10T03:17:12.216Z,101049.72
2023-05-10T03:18:20.486Z,101056.97
2023-05-10T03:19:29.301Z,101057.13
2023-05-10T03:20:43.261Z,101059.66
2023-05-10T03:21:52.258Z,101051.88
2023-05-10T03:23:02.380Z,101056.75
2023-05-10T03:24:09.528Z,101064.47
2023-05-10T03:25:14.080Z,101059.78
2023-05-10T03:26:22.178Z,101058.34
2023-05-10T03:27:28.028Z,101059.59
2023-05-10T03:28:33.579Z,101060.06
2023-05-10T03:29:38.113Z,101062.03
2023-05-10T03:30:42.644Z,101055.03
2023-05-10T03:31:46.582Z,101058.59
2023-05-10T03:32:50.465Z,101052.75
2023-05-10T03:33:54.746Z,101058.75
2023-05-10T03:34:58.333Z,101046.94
2023-05-10T03:36:03.648Z,101055.19
2023-05-10T03:37:07.282Z,101047.25
2023-05-10T03:38:11.005Z,101030.63
2023-05-10T03:39:14.829Z,101058.41
2023-05-10T03:40:18.703Z,101062.78
2023-05-10T03:41:22.600Z,101061.97
2023-05-10T03:42:26.410Z,101060.00
2023-05-10T03:43:30.021Z,101060.00
2023-05-10T03:44:33.749Z,101061.97
2023-05-10T03:45:37.563Z,101061.63
2023-05-10T03:46:41.588Z,101058.53
2023-05-10T03:47:45.309Z,101061.78
2023-05-10T03:48:48.962Z,101051.56
2023-05-10T03:49:52.662Z,101059.84
2023-05-10T03:50:56.338Z,101056.28
2023-05-10T03:52:01.753Z,101055.78
2023-05-10T03:53:05.746Z,101064.69
2023-05-10T03:54:09.492Z,101066.63
2023-05-10T03:55:13.294Z,101062.69
2023-05-10T03:56:17.004Z,101058.38
2023-05-10T03:57:20.598Z,101061.56
2023-05-10T03:58:24.337Z,101063.50
2023-05-10T03:59:28.393Z,101062.38
2023-05-10T04:00:32.089Z,101061.56
2023-05-10T04:01:36.115Z,101063.50
2023-05-10T04:02:40.172Z,101062.03
2023-05-10T04:03:43.973Z,101068.38
2023-05-10T04:04:47.636Z,101064.00
2023-05-10T04:06:00.068Z,101052.38
2023-05-10T04:07:05.600Z,101058.47
2023-05-10T04:08:09.290Z,101058.47
2023-05-10T04:09:13.015Z,101027.66
2023-05-10T04:10:17.127Z,101055.88
2023-05-10T04:11:21.302Z,101055.88
2023-05-10T04:12:24.984Z,101022.00
2023-05-10T04:13:28.692Z,101044.91
2023-05-10T04:14:32.484Z,101052.88
2023-05-10T04:15:36.420Z,101053.38
2023-05-10T04:16:40.209Z,101044.19
2023-05-10T04:17:43.926Z,101050.75
2023-05-10T04:18:47.703Z,101046.06
2023-05-10T04:19:51.330Z,101036.84
2023-05-10T04:20:55.020Z,101042.16
2023-05-10T04:21:58.879Z,101031.81
2023-05-10T04:23:04.149Z,101040.66
2023-05-10T04:24:08.181Z,101035.38
2023-05-10T04:25:12.282Z,101032.88
2023-05-10T04:26:16.118Z,101036.09
2023-05-10T04:27:19.925Z,101033.34
2023-05-10T04:28:23.665Z,101026.38
2023-05-10T04:29:27.403Z,101028.00
2023-05-10T04:30:31.028Z,101024.09
2023-05-10T04:31:34.760Z,101024.44
2023-05-10T04:32:38.493Z,101019.25
2023-05-10T04:33:42.166Z,101015.81
2023-05-10T04:34:45.993Z,101015.88
2023-05-10T04:35:49.687Z,101009.38
2023-05-10T04:36:53.349Z,101009.03
2023-05-10T04:37:57.109Z,101011.13
2023-05-10T04:39:02.655Z,101014.53
2023-05-10T04:40:07.447Z,100991.75
2023-05-10T04:41:12.156Z,101014.78
2023-05-10T04:42:15.833Z,101005.72
2023-05-10T04:43:19.576Z,101007.94
2023-05-10T04:44:23.313Z,101017.16
2023-05-10T04:45:27.013Z,101012.09
2023-05-10T04:46:30.679Z,101006.28
2023-05-10T04:47:34.344Z,101013.88
2023-05-10T04:48:38.035Z,101002.50
2023-05-10T04:49:41.782Z,101016.75
2023-05-10T04:50:45.468Z,101008.97
2023-05-10T04:51:49.133Z,101009.78
2023-05-10T04:52:53.367Z,101010.59
2023-05-10T04:54:05.110Z,101010.66
2023-05-10T04:55:11.897Z,101009.31
2023-05-10T04:56:15.600Z,100984.41
2023-05-10T04:57:19.286Z,101009.06
2023-05-10T04:58:23.073Z,100988.72
2023-05-10T04:59:26.764Z,101004.50
2023-05-10T05:00:30.873Z,101002.91
2023-05-10T05:01:34.872Z,100998.03
2023-05-10T05:02:38.734Z,100997.53
2023-05-10T05:03:42.523Z,100987.81
2023-05-10T05:04:46.256Z,100994.75
2023-05-10T05:05:49.987Z,100974.84
2023-05-10T05:06:54.080Z,100986.72
2023-05-10T05:07:57.871Z,100989.28
2023-05-10T05:09:01.551Z,100964.44
2023-05-10T05:10:05.664Z,100975.28
2023-05-10T05:11:11.108Z,100971.84
2023-05-10T05:12:14.971Z,100942.94
2023-05-10T05:13:18.923Z,100970.13
2023-05-10T05:14:22.742Z,100961.19
2023-05-10T05:15:26.393Z,100959.81
2023-05-10T05:16:32.161Z,100961.66
2023-05-10T05:17:35.904Z,100958.91
2023-05-10T05:18:39.716Z,100954.19
2023-05-10T05:19:43.437Z,100934.22
2023-05-10T05:20:47.133Z,100911.88
2023-05-10T05:21:50.942Z,100938.81
2023-05-10T05:22:54.620Z,100930.16
2023-05-10T05:23:58.317Z,100930.63
2023-05-10T05:25:01.975Z,100928.00
2023-05-10T05:26:05.675Z,100926.25
2023-05-10T05:27:11.003Z,100925.66
2023-05-10T05:28:14.557Z,100910.59
2023-05-10T05:29:18.194Z,100920.22
2023-05-10T05:30:22.113Z,100919.16
2023-05-10T05:31:25.855Z,100914.78
2023-05-10T05:32:29.594Z,100909.41
2023-05-10T05:33:33.255Z,100896.25
2023-05-10T05:34:36.887Z,100888.22
2023-05-10T05:35:40.560Z,100894.06
2023-05-10T05:36:44.232Z,100890.84
2023-05-10T05:37:47.953Z,100889.06
2023-05-10T05:38:51.637Z,100885.22
2023-05-10T05:39:55.304Z,100877.16
2023-05-10T05:40:59.207Z,100875.25
2023-05-10T05:42:02.872Z,100878.31
2023-05-10T05:43:08.329Z,100845.38
2023-05-10T05:44:12.103Z,100878.94
2023-05-10T05:45:16.080Z,100871.59
2023-05-10T05:46:20.097Z,100863.38
2023-05-10T05:47:23.950Z,100870.00
2023-05-10T05:48:28.104Z,100864.63
2023-05-10T05:49:31.749Z,100837.97
2023-05-10T05:50:35.385Z,100864.75
2023-05-10T05:51:39.012Z,100858.31
2023-05-10T05:52:42.697Z,100854.94
2023-05-10T05:53:46.364Z,100853.84
2023-05-10T05:54:50.013Z,100854.75
2023-05-10T05:55:54.560Z,100850.09
2023-05-10T05:56:59.822Z,100850.91
2023-05-10T05:58:04.868Z,100841.47
2023-05-10T05:59:10.253Z,100844.84
2023-05-10T06:00:14.918Z,100847.16
2023-05-10T06:01:18.816Z,100831.53
2023-05-10T06:02:22.556Z,100795.88
2023-05-10T06:03:30.240Z,100837.34
2023-05-10T06:04:34.014Z,100827.75
2023-05-10T06:05:37.720Z,100819.75
2023-05-10T06:06:41.499Z,100821.22
2023-05-10T06:07:45.257Z,100823.06
2023-05-10T06:08:48.948Z,100822.97
2023-05-10T06:09:52.557Z,100817.41
2023-05-10T06:10:56.193Z,100815.47
2023-05-10T06:11:59.839Z,100819.97
2023-05-10T06:13:03.747Z,100806.22
2023-05-10T06:14:09.282Z,100803.50
2023-05-10T06:15:13.679Z,100789.34
2023-05-10T06:16:17.578Z,100802.97
2023-05-10T06:17:21.215Z,100801.97
2023-05-10T06:18:24.859Z,100799.31
2023-05-10T06:19:28.473Z,100788.41
2023-05-10T06:20:32.212Z,100793.72
2023-05-10T06:21:35.879Z,100791.22
2023-05-10T06:22:39.544Z,100777.03
2023-05-10T06:23:43.401Z,100782.00
2023-05-10T06:24:47.811Z,100782.53
2023-05-10T06:25:51.518Z,100777.84
2023-05-10T06:26:55.132Z,100772.00
2023-05-10T06:27:58.901Z,100765.34
2023-05-10T06:29:02.695Z,100758.63
2023-05-10T06:30:13.054Z,100762.75
2023-05-10T06:31:17.272Z,100749.47
2023-05-10T06:32:21.050Z,100761.53
2023-05-10T06:33:24.834Z,100767.59
2023-05-10T06:34:28.546Z,100759.25
2023-05-10T06:35:32.338Z,100760.91
2023-05-10T06:36:36.108Z,100754.81
2023-05-10T06:37:39.993Z,100758.66
2023-05-10T06:38:43.707Z,100750.38
2023-05-10T06:39:47.367Z,100747.88
2023-05-10T06:40:51.135Z,100749.53
2023-05-10T06:41:54.841Z,100742.13
2023-05-10T06:42:58.542Z,100713.56
2023-05-10T06:44:02.292Z,100739.56
2023-05-10T06:45:08.612Z,100721.50
2023-05-10T06:46:12.299Z,100728.47
2023-05-10T06:47:15.982Z,100728.47
2023-05-10T06:48:19.667Z,100723.44
2023-05-10T06:49:23.472Z,100716.78
2023-05-10T06:50:27.133Z,100715.22
2023-05-10T06:51:30.826Z,100713.25
2023-05-10T06:52:34.520Z,100704.94
2023-05-10T06:53:38.140Z,100705.13
2023-05-10T06:54:41.800Z,100706.38
2023-05-10T06:55:45.390Z,100702.44
2023-05-10T06:56:49.092Z,100701.72
2023-05-10T06:57:52.779Z,100700.19
2023-05-10T06:58:56.550Z,100697.41
2023-05-10T07:00:00.670Z,100698.22
2023-05-10T07:01:09.167Z,100695.78
2023-05-10T07:02:12.997Z,100679.38
2023-05-10T07:03:16.781Z,100693.84
2023-05-10T07:04:20.435Z,100680.31
2023-05-10T07:05:24.222Z,100678.66
2023-05-10T07:06:33.457Z,100656.53
2023-05-10T07:07:37.719Z,100685.16
2023-05-10T07:08:41.550Z,100662.59
2023-05-10T07:09:45.202Z,100668.34
2023-05-10T07:10:48.843Z,100667.25
2023-05-10T07:11:52.535Z,100660.00
2023-05-10T07:12:56.385Z,100641.69
2023-05-10T07:14:00.197Z,100664.94
2023-05-10T07:15:03.969Z,100660.53
2023-05-10T07:16:09.816Z,100667.31
2023-05-10T07:17:13.546Z,100660.44
2023-05-10T07:18:17.384Z,100654.59
2023-05-10T07:19:21.218Z,100665.97
2023-05-10T07:20:24.955Z,100655.69
2023-05-10T07:21:28.691Z,100656.22
2023-05-10T07:22:32.351Z,100655.81
2023-05-10T07:23:36.097Z,100654.22
2023-05-10T07:24:39.827Z,100657.00
2023-05-10T07:25:43.477Z,100655.34
2023-05-10T07:26:47.114Z,100663.09
2023-05-10T07:27:50.781Z,100668.19
2023-05-10T07:28:55.014Z,100658.00
2023-05-10T07:29:58.678Z,100651.03
2023-05-10T07:31:02.378Z,100668.16
2023-05-10T07:32:08.048Z,100662.03
2023-05-10T07:33:12.728Z,100660.09
2023-05-10T07:34:17.848Z,100661.81
2023-05-10T07:35:21.655Z,100656.81
2023-05-10T07:36:25.360Z,100662.06
2023-05-10T07:37:29.134Z,100655.78
2023-05-10T07:38:32.775Z,100651.19
2023-05-10T07:39:36.370Z,100656.00
2023-05-10T07:40:40.914Z,100640.50
2023-05-10T07:41:44.590Z,100650.50
2023-05-10T07:42:48.163Z,100639.81
2023-05-10T07:43:52.039Z,100631.41
2023-05-10T07:44:55.748Z,100638.66
2023-05-10T07:45:59.409Z,100635.97
2023-05-10T07:47:03.126Z,100633.72
2023-05-10T07:48:08.527Z,100622.25
2023-05-10T07:49:12.295Z,100620.38
2023-05-10T07:50:16.087Z,100617.72
2023-05-10T07:51:19.676Z,100613.66
2023-05-10T07:52:23.294Z,100613.38
2023-05-10T07:53:28.191Z,100613.03
2023-05-10T07:54:31.811Z,100619.50
2023-05-10T07:55:35.709Z,100610.88
2023-05-10T07:56:39.626Z,100610.91
2023-05-10T07:57:44.415Z,100604.16
2023-05-10T07:58:48.062Z,100611.41
2023-05-10T07:59:51.664Z,100615.38
2023-05-10T08:00:55.343Z,100579.84
2023-05-10T08:01:59.027Z,100601.09
2023-05-10T08:03:02.852Z,100603.47
2023-05-10T08:04:08.290Z,100603.88
2023-05-10T08:05:12.236Z,100604.56
2023-05-10T08:06:16.132Z,100595.00
2023-05-10T08:07:19.883Z,100597.78
2023-05-10T08:08:23.499Z,100594.16
2023-05-10T08:09:27.152Z,100590.25
2023-05-10T08:10:31.047Z,100589.03
2023-05-10T08:11:35.324Z,100574.75
2023-05-10T08:12:39.420Z,100587.97
2023-05-10T08:13:43.196Z,100591.56
2023-05-10T08:14:46.849Z,100588.03
2023-05-10T08:15:50.549Z,100584.06
2023-05-10T08:16:54.297Z,100585.31
2023-05-10T08:17:57.963Z,100570.63
2023-05-10T08:19:01.802Z,100578.63
2023-05-10T08:20:08.044Z,100570.28
2023-05-10T08:21:11.683Z,100574.69
2023-05-10T08:22:15.325Z,100561.06
2023-05-10T08:23:19.015Z,100575.19
2023-05-10T08:24:22.805Z,100556.06
2023-05-10T08:25:26.494Z,100570.50
2023-05-10T08:26:30.140Z,100575.13
2023-05-10T08:27:33.866Z,100578.84
2023-05-10T08:28:37.561Z,100573.72
2023-05-10T08:29:49.694Z,100569.34
2023-05-10T08:30:54.273Z,100563.59
2023-05-10T08:31:58.012Z,100565.69
2023-05-10T08:33:01.662Z,100561.00
2023-05-10T08:34:05.334Z,100569.59
2023-05-10T08:35:11.083Z,100564.50
2023-05-10T08:36:14.800Z,100554.28
2023-05-10T08:37:18.550Z,100557.84
2023-05-10T08:38:22.141Z,100553.09
2023-05-10T08:39:30.540Z,100557.09
2023-05-10T08:40:34.874Z,100551.91
2023-05-10T08:41:41.221Z,100558.25
2023-05-10T08:42:53.316Z,100519.19
2023-05-10T08:43:57.369Z,100554.38
2023-05-10T08:45:02.298Z,100550.78
2023-05-10T08:46:09.598Z,100557.91
2023-05-10T08:47:15.069Z,100547.63
2023-05-10T08:48:19.448Z,100538.88
2023-05-10T08:49:23.509Z,100543.28
2023-05-10T08:50:29.006Z,100536.09
2023-05-10T08:51:37.563Z,100542.84
2023-05-10T08:52:43.196Z,100539.69
2023-05-10T08:53:47.280Z,100538.06
2023-05-10T08:54:51.054Z,100537.69
2023-05-10T08:55:55.229Z,100524.53
2023-05-10T08:56:59.197Z,100536.81
2023-05-10T08:58:02.891Z,100534.47
2023-05-10T08:59:06.661Z,100546.53
2023-05-10T09:00:11.277Z,100534.31
2023-05-10T09:01:15.628Z,100533.53
2023-05-10T09:02:20.183Z,100537.81
2023-05-10T09:03:23.884Z,100540.44
2023-05-10T09:04:28.016Z,100523.59
2023-05-10T09:05:33.517Z,100547.63
2023-05-10T09:06:37.407Z,100538.34
2023-05-10T09:07:41.266Z,100511.72
2023-05-10T09:08:45.083Z,100519.38
2023-05-10T09:09:49.421Z,100525.53
2023-05-10T09:10:53.338Z,100535.41
2023-05-10T09:11:57.198Z,100530.72
2023-05-10T09:13:01.257Z,100540.63
2023-05-10T09:14:05.296Z,100533.06
2023-05-10T09:15:11.072Z,100529.13
2023-05-10T09:17:25.541Z,100522.66
2023-05-10T09:18:29.490Z,100518.47
2023-05-10T09:19:33.135Z,100521.75
2023-05-10T09:20:38.384Z,100521.13
2023-05-10T09:21:42.037Z,100522.88
2023-05-10T09:22:45.859Z,100494.66
2023-05-10T09:23:50.123Z,100517.50
2023-05-10T09:25:07.670Z,100518.00
2023-05-10T09:26:11.397Z,100515.97
2023-05-10T09:27:15.086Z,100518.75
2023-05-10T09:28:18.791Z,100518.28
2023-05-10T09:29:22.557Z,100519.78
2023-05-10T09:30:27.701Z,100510.66
2023-05-10T09:31:48.241Z,100523.41
2023-05-10T09:32:52.520Z,100518.66
2023-05-10T09:33:56.405Z,100516.16
2023-05-10T09:35:07.617Z,100522.19
2023-05-10T09:36:13.752Z,100520.56
2023-05-10T09:37:17.358Z,100514.88
2023-05-10T09:38:21.035Z,100490.53
2023-05-10T09:39:32.989Z,100509.34
2023-05-10T09:40:36.853Z,100524.00
2023-05-10T09:41:44.174Z,100509.06
2023-05-10T09:42:55.056Z,100520.19
2023-05-10T09:43:58.961Z,100515.69
2023-05-10T09:45:04.733Z,100508.94
2023-05-10T09:46:11.973Z,100520.38
2023-05-10T09:47:20.057Z,100516.47
2023-05-10T09:48:26.631Z,100507.47
2023-05-10T09:49:30.640Z,100518.72
2023-05-10T09:50:34.295Z,100515.72
2023-05-10T09:51:39.632Z,100513.97
2023-05-10T09:52:51.003Z,100522.78
2023-05-10T09:54:12.326Z,100507.53
2023-05-10T09:55:16.286Z,100511.44
2023-05-10T09:56:35.186Z,100530.16
2023-05-10T09:57:39.055Z,100525.00
2023-05-10T09:58:42.851Z,100528.16
2023-05-10T09:59:46.593Z,100532.47
2023-05-10T10:00:50.484Z,100528.47
2023-05-10T10:01:54.964Z,100533.84
2023-05-10T10:03:00.602Z,100529.56
2023-05-10T10:04:06.201Z,100544.13
2023-05-10T10:05:10.603Z,100530.09
2023-05-10T10:06:29.529Z,100542.28
2023-05-10T10:07:36.713Z,100537.25
2023-05-10T10:08:40.525Z,100537.84
2023-05-10T10:09:44.321Z,100545.00
2023-05-10T10:10:53.205Z,100543.03
2023-05-10T10:11:57.304Z,100525.22
2023-05-10T10:13:01.628Z,100542.41
2023-05-10T10:14:05.722Z,100543.91
2023-05-10T10:15:10.771Z,100538.25
2023-05-10T10:16:14.586Z,100542.72
2023-05-10T10:17:18.765Z,100539.97
2023-05-10T10:18:22.500Z,100536.88
2023-05-10T10:19:26.157Z,100535.31
2023-05-10T10:20:29.941Z,100530.78
2023-05-10T10:21:34.606Z,100539.22
2023-05-10T10:22:40.063Z,100541.13
2023-05-10T10:23:43.868Z,100529.94
2023-05-10T10:24:47.889Z,100540.47
2023-05-10T10:25:51.896Z,100552.09
2023-05-10T10:27:00.730Z,100551.66
2023-05-10T10:28:18.306Z,100556.53
2023-05-10T10:29:27.791Z,100524.00
2023-05-10T10:30:37.493Z,100554.78
2023-05-10T10:31:47.382Z,100551.94
2023-05-10T10:33:31.687Z,100552.00
2023-05-10T10:34:35.954Z,100557.28
2023-05-10T10:35:39.937Z,100549.47
2023-05-10T10:36:47.272Z,100544.28
2023-05-10T10:37:53.156Z,100568.84
2023-05-10T10:39:03.322Z,100547.94
2023-05-10T10:40:25.366Z,100554.72
2023-05-10T10:41:34.250Z,100537.91
2023-05-10T10:42:47.414Z,100560.91
2023-05-10T10:43:51.029Z,100570.44
2023-05-10T10:45:14.576Z,100545.44
2023-05-10T10:46:19.376Z,100569.78
2023-05-10T10:47:26.124Z,100574.38
2023-05-10T10:48:29.938Z,100572.31
2023-05-10T10:49:34.322Z,100573.13
2023-05-10T10:50:46.473Z,100567.59
2023-05-10T10:52:24.301Z,100569.16
2023-05-10T10:53:30.648Z,100564.34
2023-05-10T10:54:35.081Z,100549.50
2023-05-10T10:55:48.334Z,100568.72
2023-05-10T10:57:13.286Z,100572.06
2023-05-10T10:58:32.250Z,100555.19
2023-05-10T10:59:35.932Z,100579.94
2023-05-10T11:00:40.696Z,100552.13
2023-05-10T11:01:44.426Z,100580.88
2023-05-10T11:02:49.132Z,100589.03
2023-05-10T11:04:19.463Z,100576.28
2023-05-10T11:05:36.809Z,100587.78
2023-05-10T11:06:40.438Z,100593.31
2023-05-10T11:07:54.400Z,100601.34
2023-05-10T11:09:00.037Z,100581.81
2023-05-10T11:10:07.138Z,100591.78
2023-05-10T11:11:10.826Z,100590.09
2023-05-10T11:12:14.575Z,100599.75
2023-05-10T11:13:18.317Z,100602.03
2023-05-10T11:14:23.536Z,100601.56
2023-05-10T11:15:31.758Z,100605.63
2023-05-10T11:16:44.062Z,100610.72
2023-05-10T11:17:49.817Z,100619.38
2023-05-10T11:19:00.467Z,100612.22
2023-05-10T11:20:16.415Z,100613.34
2023-05-10T11:21:20.367Z,100620.81
2023-05-10T11:22:26.716Z,100621.28
2023-05-10T11:23:34.429Z,100624.16
2023-05-10T11:24:39.790Z,100633.72
2023-05-10T11:25:46.750Z,100615.34
2023-05-10T11:26:52.878Z,100636.13
2023-05-10T11:27:56.972Z,100640.84
2023-05-10T11:29:01.038Z,100611.13
2023-05-10T11:30:08.473Z,100645.13
2023-05-10T11:31:12.530Z,100649.25
2023-05-10T11:32:16.298Z,100638.41
2023-05-10T11:33:20.909Z,100649.25
2023-05-10T11:34:28.556Z,100655.59
2023-05-10T11:35:32.215Z,100652.03
2023-05-10T11:36:37.439Z,100660.22
2023-05-10T11:37:42.909Z,100664.59
2023-05-10T11:38:46.766Z,100663.69
2023-05-10T11:39:52.209Z,100640.69
2023-05-10T11:40:55.950Z,100667.28
2023-05-10T11:42:00.298Z,100659.34
2023-05-10T11:43:04.765Z,100651.50
2023-05-10T11:44:10.864Z,100665.16
2023-05-10T11:45:14.653Z,100656.84
2023-05-10T11:46:20.541Z,100662.03
2023-05-10T11:47:24.300Z,100666.75
2023-05-10T11:48:28.217Z,100666.31
2023-05-10T11:49:32.045Z,100642.50
2023-05-10T11:50:35.935Z,100659.34
2023-05-10T11:51:39.674Z,100661.75
2023-05-10T11:52:43.374Z,100647.78
2023-05-10T11:53:47.018Z,100670.69
2023-05-10T11:54:55.865Z,100674.25
2023-05-10T11:56:05.644Z,100676.47
2023-05-10T11:57:09.287Z,100675.06
2023-05-10T11:58:13.027Z,100671.91
2023-05-10T11:59:17.110Z,100673.34
2023-05-10T12:00:20.911Z,100671.03
2023-05-10T12:01:25.247Z,100675.84
2023-05-10T12:02:29.184Z,100662.19
2023-05-10T12:03:34.495Z,100677.72
2023-05-10T12:04:38.784Z,100665.88
2023-05-10T12:05:43.132Z,100673.69
2023-05-10T12:06:47.147Z,100678.88
2023-05-10T12:07:50.782Z,100685.09
2023-05-10T12:08:54.578Z,100684.69
2023-05-10T12:10:13.821Z,100680.38
2023-05-10T12:11:17.531Z,100689.47
2023-05-10T12:12:21.287Z,100688.69
2023-05-10T12:13:24.989Z,100689.47
2023-05-10T12:14:28.568Z,100689.03
2023-05-10T12:15:32.197Z,100675.84
2023-05-10T12:16:35.876Z,100683.44
2023-05-10T12:17:42.680Z,100676.75
2023-05-10T12:18:50.000Z,100681.13
2023-05-10T12:19:53.630Z,100686.66
2023-05-10T12:21:05.563Z,100685.50
2023-05-10T12:22:09.329Z,100687.06
2023-05-10T12:23:13.170Z,100690.22
2023-05-10T12:24:16.832Z,100692.19
2023-05-10T12:25:23.968Z,100702.69
2023-05-10T12:26:28.020Z,100701.81
2023-05-10T12:27:34.439Z,100708.28
2023-05-10T12:28:38.835Z,100714.19
2023-05-10T12:29:44.978Z,100711.53
2023-05-10T12:30:48.676Z,100715.91